Time;durP1;ratioP1;P1;durP2;ratioP2;P2;SDS_P1;SDS_P2;PMS_P1;PMS_P2;Temp;Humidity;BMP_temperature;BMP_pressure;BME280_temperature;BME280_humidity;BME280_pressure;Samples;Min_cycle;Max_cycle;Signal;HPM_P1;HPM_P2
2022/09/16 00:02:13;;;;;;;;;6.33;5.67;;;;;18.90;50.76;100860.84;5017260;28;56674;-68
2022/09/16 00:04:39;;;;;;;;;8.33;6.00;;;;;18.99;51.15;100881.22;5018194;28;48156;-69
2022/09/16 00:07:04;;;;;;;;;6.00;5.00;;;;;18.59;50.85;100806.47;5018232;28;46275;-67
2022/09/16 00:09:30;;;;;;;;;8.00;7.67;;;;;19.00;50.98;100877.47;5019840;28;45261;-68
2022/09/16 00:11:55;;;;;;;;;6.67;6.00;;;;;18.99;50.83;100889.28;5019848;28;45329;-68
2022/09/16 00:14:20;;;;;;;;;6.33;5.33;;;;;18.95;50.98;100873.72;5019366;28;46601;-68
2022/09/16 00:16:46;;;;;;;;;5.33;4.00;;;;;19.00;50.91;100885.56;5034782;28;45983;-68
2022/09/16 00:19:12;;;;;;;;;9.33;8.33;;;;;19.02;50.76;100891.63;5019030;28;45293;-68
2022/09/16 00:21:37;;;;;;;;;14.33;11.67;;;;;18.93;51.04;100879.31;5018210;28;45337;-68
2022/09/16 00:24:03;;;;;;;;;4.67;4.67;;;;;18.86;51.06;100878.44;5019138;28;46291;-68
2022/09/16 00:26:28;;;;;;;;;5.00;5.00;;;;;18.90;51.15;100903.13;5018110;28;45506;-68
2022/09/16 00:28:54;;;;;;;;;7.00;5.33;;;;;18.73;51.38;100875.59;5019400;28;45316;-67
2022/09/16 00:31:19;;;;;;;;;6.67;6.67;;;;;18.84;51.63;100896.66;5034659;28;45348;-68
2022/09/16 00:33:45;;;;;;;;;4.67;4.67;;;;;18.71;51.57;100877.66;5019230;28;45523;-67
2022/09/16 00:36:14;;;;;;;;;5.00;5.00;;;;;18.75;51.56;100882.47;5019078;28;45475;-69
2022/09/16 00:38:40;;;;;;;;;6.00;6.00;;;;;18.87;51.74;100898.94;5018154;28;45190;-69
2022/09/16 00:41:06;;;;;;;;;5.00;5.00;;;;;18.87;51.61;100907.03;5019442;28;45502;-70
2022/09/16 00:43:50;;;;;;;;;5.00;5.00;;;;;18.76;52.12;100902.16;5018768;28;46068;-68
2022/09/16 00:46:19;;;;;;;;;5.67;4.33;;;;;18.66;52.14;100870.19;5018934;28;45564;-68
2022/09/16 00:48:45;;;;;;;;;5.00;5.00;;;;;18.82;51.98;100904.06;5019059;28;45515;-68
2022/09/16 00:51:13;;;;;;;;;4.33;4.33;;;;;18.88;51.79;100910.56;5019281;28;45257;-68
2022/09/16 00:53:43;;;;;;;;;8.33;6.33;;;;;18.86;51.73;100897.28;5017934;28;46891;-68
2022/09/16 00:56:12;;;;;;;;;5.00;5.00;;;;;18.83;51.74;100889.59;5018735;28;45366;-68
2022/09/16 00:58:43;;;;;;;;;6.67;5.00;;;;;18.86;51.84;100891.06;5018821;28;45374;-71
2022/09/16 01:01:09;;;;;;;;;5.00;4.00;;;;;18.86;52.04;100886.50;5018770;28;45470;-69
2022/09/16 01:03:45;;;;;;;;;10.67;10.67;;;;;18.74;52.19;100867.34;5018626;28;46818;-68
2022/09/16 01:06:13;;;;;;;;;6.00;5.00;;;;;18.68;52.73;100862.72;5018852;28;45424;-68
2022/09/16 01:08:41;;;;;;;;;5.67;3.33;;;;;18.88;52.41;100892.53;5019123;28;45527;-68
2022/09/16 01:11:06;;;;;;;;;5.67;5.33;;;;;18.86;52.15;100875.72;5018826;28;45592;-68
2022/09/16 01:13:32;;;;;;;;;7.67;5.67;;;;;18.87;52.32;100887.34;5018342;28;46500;-68
2022/09/16 01:16:19;;;;;;;;;7.00;5.00;;;;;18.87;52.85;100885.47;5018694;28;45365;-67
2022/09/16 01:19:12;;;;;;;;;9.67;8.33;;;;;18.78;53.21;100883.94;5018640;28;45344;-68
2022/09/16 01:21:57;;;;;;;;;6.33;5.00;;;;;18.70;53.16;100870.63;5018671;28;45325;-68
2022/09/16 01:24:39;;;;;;;;;5.67;5.00;;;;;18.72;53.35;100882.03;5018372;28;46514;-68
2022/09/16 01:27:43;;;;;;;;;5.00;5.00;;;;;18.80;53.59;100889.97;5018327;28;45218;-68
2022/09/16 01:30:14;;;;;;;;;7.00;6.67;;;;;18.80;53.35;100889.97;4999988;28;45324;-69
2022/09/16 01:32:46;;;;;;;;;6.33;6.33;;;;;18.78;53.63;100894.72;5016684;28;45549;-66
2022/09/16 01:35:55;;;;;;;;;5.67;5.67;;;;;18.38;53.71;100828.84;4998347;28;47785;-68
2022/09/16 01:38:28;;;;;;;;;5.67;4.33;;;;;18.75;53.33;100889.72;4986165;28;45529;-69
2022/09/16 01:41:06;;;;;;;;;7.00;7.00;;;;;18.65;53.56;100873.91;5000470;28;45407;-69
2022/09/16 01:43:56;;;;;;;;;7.00;6.00;;;;;18.76;53.73;100892.22;5018095;28;45220;-68
2022/09/16 01:46:30;;;;;;;;;4.33;4.33;;;;;18.78;53.51;100889.31;5017910;28;45669;-68
2022/09/16 01:49:11;;;;;;;;;10.67;7.00;;;;;18.42;53.91;100836.38;5016628;28;45549;-68
2022/09/16 01:51:45;;;;;;;;;6.67;6.00;;;;;18.29;53.98;100812.03;5016777;28;45282;-68
2022/09/16 01:54:18;;;;;;;;;6.33;5.33;;;;;18.64;53.85;100882.16;5017525;28;45268;-68
2022/09/16 01:56:43;;;;;;;;;7.67;6.67;;;;;18.70;54.17;100892.16;5017805;28;46949;-68
2022/09/16 01:59:14;;;;;;;;;10.33;9.33;;;;;18.51;54.52;100862.13;5017791;28;45446;-68
2022/09/16 02:01:46;;;;;;;;;5.33;5.33;;;;;18.70;54.30;100889.47;5017865;28;45311;-67
2022/09/16 02:04:23;;;;;;;;;7.00;7.00;;;;;18.13;54.39;100805.03;5018091;28;45182;-67
2022/09/16 02:06:52;;;;;;;;;8.67;6.00;;;;;18.65;54.49;100891.91;5016914;28;45785;-68
2022/09/16 02:09:25;;;;;;;;;9.67;6.33;;;;;18.62;54.27;100885.03;5017779;28;45252;-66
2022/09/16 02:11:56;;;;;;;;;6.33;5.00;;;;;18.63;54.87;100875.13;5017521;28;45411;-67
2022/09/16 02:14:26;;;;;;;;;9.33;7.00;;;;;18.65;54.67;100889.22;5018098;28;45463;-68
2022/09/16 02:17:01;;;;;;;;;6.33;6.33;;;;;18.58;54.83;100880.19;5016269;28;48853;-67
2022/09/16 02:19:36;;;;;;;;;8.00;6.00;;;;;18.55;54.46;100879.56;5017540;28;45509;-68
2022/09/16 02:22:08;;;;;;;;;7.33;6.67;;;;;18.54;55.14;100885.97;5017554;28;45631;-67
2022/09/16 02:24:36;;;;;;;;;7.67;7.00;;;;;18.49;55.31;100872.25;5033560;28;45579;-67
2022/09/16 02:27:05;;;;;;;;;6.33;6.00;;;;;18.10;55.33;100810.78;5017541;28;45881;-67
2022/09/16 02:30:00;;;;;;;;;6.33;6.00;;;;;18.45;55.82;100878.22;5017467;28;45317;-67
2022/09/16 02:32:30;;;;;;;;;8.00;6.67;;;;;18.42;55.82;100878.59;5017582;28;45550;-67
2022/09/16 02:34:57;;;;;;;;;7.33;6.33;;;;;18.36;55.82;100869.44;5017924;28;45409;-67
2022/09/16 02:37:29;;;;;;;;;6.33;6.33;;;;;18.41;55.84;100872.38;5017059;28;45978;-69
2022/09/16 02:40:03;;;;;;;;;9.00;8.00;;;;;18.41;55.65;100877.75;5017173;28;45563;-68
2022/09/16 02:42:29;;;;;;;;;6.67;6.67;;;;;18.40;55.91;100865.31;5017214;28;45555;-69
2022/09/16 02:44:56;;;;;;;;;9.67;8.33;;;;;18.37;55.92;100859.50;5017398;28;45591;-67
2022/09/16 02:47:36;;;;;;;;;7.00;7.00;;;;;18.35;56.16;100859.69;5016970;28;45761;-67
2022/09/16 02:50:13;;;;;;;;;11.67;6.00;;;;;18.35;55.83;100861.53;5017119;28;45329;-69
2022/09/16 02:52:49;;;;;;;;;5.00;5.00;;;;;18.32;56.33;100861.94;5016842;28;45505;-68
2022/09/16 02:55:32;;;;;;;;;7.00;7.00;;;;;18.15;56.54;100855.97;5017235;28;45453;-68
2022/09/16 02:57:57;;;;;;;;;9.67;7.00;;;;;18.18;56.59;100855.56;5016395;28;45895;-68
2022/09/16 03:00:24;;;;;;;;;6.00;6.00;;;;;17.87;56.86;100808.28;5017022;28;45478;-67
2022/09/16 03:02:50;;;;;;;;;10.00;8.33;;;;;18.11;57.03;100843.91;5016788;28;45338;-67
2022/09/16 03:05:15;;;;;;;;;7.67;6.33;;;;;18.20;56.94;100854.34;5017262;28;45281;-67
2022/09/16 03:07:41;;;;;;;;;10.67;8.00;;;;;18.16;57.02;100852.25;5015345;28;48537;-68
2022/09/16 03:10:09;;;;;;;;;8.00;8.00;;;;;18.16;56.97;100852.25;5016743;28;45472;-68
2022/09/16 03:13:10;;;;;;;;;9.00;7.00;;;;;18.12;57.12;100850.97;5016852;28;45281;-67
2022/09/16 03:15:42;;;;;;;;;7.00;7.00;;;;;18.12;57.17;100856.34;5016903;28;45209;-67
2022/09/16 03:18:28;;;;;;;;;5.67;5.67;;;;;17.99;57.22;100840.03;5019714;28;46327;-67
2022/09/16 03:21:08;;;;;;;;;10.00;7.00;;;;;17.92;57.10;100826.53;5020405;28;45562;-69
2022/09/16 03:24:01;;;;;;;;;6.33;6.33;;;;;17.93;57.54;100837.09;5019840;28;45269;-68
2022/09/16 03:26:56;;;;;;;;;9.67;8.00;;;;;18.03;57.48;100852.13;5020481;28;45227;-68
2022/09/16 03:29:32;;;;;;;;;10.33;6.33;;;;;18.00;57.50;100855.16;5020035;28;46458;-67
2022/09/16 03:32:24;;;;;;;;;9.67;8.33;;;;;17.94;57.64;100851.38;5020265;28;45561;-67
2022/09/16 03:35:14;;;;;;;;;6.00;6.00;;;;;17.87;57.89;100850.47;5013179;28;45544;-67
2022/09/16 03:37:43;;;;;;;;;4.00;4.00;;;;;17.79;57.71;100824.50;5020399;28;45305;-67
2022/09/16 03:40:13;;;;;;;;;6.00;5.33;;;;;17.86;57.63;100838.88;5019500;28;46243;-68
2022/09/16 03:42:39;;;;;;;;;9.00;7.33;;;;;17.77;57.75;100828.41;5019840;28;45384;-68
2022/09/16 03:45:06;;;;;;;;;20.00;14.00;;;;;17.85;57.42;100845.28;5020085;28;45385;-68
2022/09/16 03:47:32;;;;;;;;;8.00;6.67;;;;;17.78;57.61;100838.97;5019894;28;45163;-68
2022/09/16 03:49:57;;;;;;;;;6.50;6.50;;;;;17.79;57.79;100864.84;5019831;28;46695;-67
2022/09/16 03:52:23;;;;;;;;;9.00;8.00;;;;;17.79;57.90;100878.28;5019397;28;45358;-68
2022/09/16 03:54:48;;;;;;;;;10.67;7.00;;;;;17.74;58.12;100883.41;5034649;28;45506;-68
2022/09/16 03:57:13;;;;;;;;;8.00;5.33;;;;;17.34;58.18;100804.91;5018790;28;45580;-68
2022/09/16 03:59:39;;;;;;;;;8.33;7.67;;;;;17.74;58.01;100878.03;5019591;28;48832;-68
2022/09/16 04:02:05;;;;;;;;;6.33;5.00;;;;;17.74;58.07;100886.09;5019547;28;45508;-67
2022/09/16 04:04:30;;;;;;;;;6.33;6.33;;;;;17.74;58.20;100883.41;5018242;28;45471;-67
2022/09/16 04:06:55;;;;;;;;;8.00;5.33;;;;;17.77;57.62;100880.34;5018821;28;63374;-68
2022/09/16 04:09:20;;;;;;;;;12.67;11.00;;;;;17.79;58.78;100889.06;5019576;28;45738;-68
2022/09/16 04:11:46;;;;;;;;;5.33;5.33;;;;;17.71;58.00;100858.75;5019311;28;45240;-68
2022/09/16 04:14:11;;;;;;;;;6.00;6.00;;;;;17.75;58.63;100871.63;5019527;28;45417;-67
2022/09/16 04:16:36;;;;;;;;;11.33;7.00;;;;;17.62;58.42;100866.06;5019280;28;45315;-68
2022/09/16 04:19:02;;;;;;;;;7.67;7.67;;;;;17.61;58.50;100886.72;5018110;28;48452;-68
2022/09/16 04:21:28;;;;;;;;;7.67;7.00;;;;;16.97;58.96;100786.19;5017879;28;45305;-68
2022/09/16 04:23:53;;;;;;;;;11.67;8.00;;;;;17.39;58.94;100874.22;5018909;28;45321;-68
2022/09/16 04:26:19;;;;;;;;;11.67;10.67;;;;;16.81;59.33;100805.97;5019140;28;45438;-69
2022/09/16 04:28:46;;;;;;;;;7.33;7.33;;;;;17.27;59.47;100881.09;5018159;28;45759;-67
2022/09/16 04:31:14;;;;;;;;;8.33;8.33;;;;;17.35;59.63;100897.09;5018940;28;45209;-68
2022/09/16 04:33:40;;;;;;;;;6.00;6.00;;;;;17.24;59.66;100874.22;5019375;28;45292;-68
2022/09/16 04:36:17;;;;;;;;;7.67;7.00;;;;;16.97;59.79;100839.91;5017686;28;45497;-68
2022/09/16 04:38:44;;;;;;;;;11.67;8.67;;;;;17.38;59.64;100891.34;5018480;28;45633;-68
2022/09/16 04:41:12;;;;;;;;;9.67;9.67;;;;;17.31;59.33;100888.59;5034081;28;46316;-67
2022/09/16 04:43:38;;;;;;;;;14.00;12.00;;;;;17.37;59.59;100889.69;5018504;28;45366;-67
2022/09/16 04:46:05;;;;;;;;;9.00;9.00;;;;;17.39;59.77;100902.94;5018978;28;45752;-68
2022/09/16 04:48:30;;;;;;;;;11.33;9.67;;;;;17.36;59.60;100889.88;5018610;28;47531;-69
2022/09/16 04:51:08;;;;;;;;;10.67;9.00;;;;;17.39;59.96;100897.56;5018674;28;45474;-69
2022/09/16 04:53:34;;;;;;;;;11.67;10.00;;;;;17.34;60.18;100890.91;5017459;28;45459;-69
2022/09/16 04:56:08;;;;;;;;;16.33;13.33;;;;;17.34;60.50;100890.91;5018816;28;45296;-68
2022/09/16 04:58:35;;;;;;;;;11.00;10.33;;;;;17.34;60.10;100885.53;5018507;28;45753;-68
2022/09/16 05:01:11;;;;;;;;;9.67;9.67;;;;;16.92;60.08;100815.47;5017063;28;45379;-68
2022/09/16 05:03:38;;;;;;;;;11.00;10.67;;;;;17.24;60.02;100871.53;5018625;28;45241;-67
2022/09/16 05:06:06;;;;;;;;;14.33;13.00;;;;;17.31;60.42;100883.22;5018899;28;45254;-68
2022/09/16 05:08:34;;;;;;;;;13.00;11.33;;;;;17.38;60.06;100907.47;5016869;28;46761;-68
2022/09/16 05:11:20;;;;;;;;;11.00;10.67;;;;;17.32;60.15;100879.50;5018376;28;45352;-68
2022/09/16 05:13:46;;;;;;;;;14.00;11.67;;;;;17.36;60.09;100893.41;5018589;28;45403;-67
2022/09/16 05:16:14;;;;;;;;;13.67;11.33;;;;;17.45;60.09;100902.22;5017264;28;45451;-69
2022/09/16 05:18:41;;;;;;;;;13.00;10.00;;;;;17.36;59.83;100887.19;5018305;28;45930;-69
2022/09/16 05:21:09;;;;;;;;;13.67;11.00;;;;;17.32;59.77;100882.19;5017641;28;45511;-68
2022/09/16 05:23:36;;;;;;;;;10.00;7.67;;;;;17.40;59.87;100905.44;5017629;28;45301;-68
2022/09/16 05:26:34;;;;;;;;;11.33;11.33;;;;;17.38;59.93;100898.59;5018072;28;45261;-68
2022/09/16 05:29:01;;;;;;;;;10.67;9.67;;;;;17.34;59.92;100893.59;5005906;28;46620;-70
2022/09/16 05:31:29;;;;;;;;;9.67;9.67;;;;;17.37;59.72;100896.91;5017767;28;45499;-68
2022/09/16 05:33:55;;;;;;;;;15.67;13.00;;;;;17.18;60.33;100892.91;5018432;28;45484;-69
2022/09/16 05:36:21;;;;;;;;;15.00;14.00;;;;;17.21;60.48;100901.44;5018367;28;45244;-69
2022/09/16 05:38:48;;;;;;;;;17.67;12.00;;;;;17.17;60.30;100892.09;5018181;28;46347;-71
2022/09/16 05:41:14;;;;;;;;;12.67;10.67;;;;;17.23;60.68;100888.69;5018061;28;45411;-69
2022/09/16 05:43:39;;;;;;;;;12.00;12.00;;;;;17.16;60.67;100906.53;5017753;28;45234;-70
2022/09/16 05:46:06;;;;;;;;;15.33;12.33;;;;;17.21;60.52;100912.19;5015251;28;45465;-70
2022/09/16 05:48:32;;;;;;;;;12.33;12.33;;;;;17.25;60.40;100910.81;5021867;28;46859;-68
2022/09/16 05:51:05;;;;;;;;;16.00;15.00;;;;;17.22;60.43;100919.25;5021498;28;45317;-68
2022/09/16 05:53:32;;;;;;;;;11.00;9.33;;;;;17.15;60.61;100917.47;5024867;28;45523;-69
2022/09/16 05:56:07;;;;;;;;;13.33;9.33;;;;;16.81;60.23;100861.53;5029912;28;45492;-70
2022/09/16 05:58:34;;;;;;;;;16.00;14.67;;;;;17.02;61.06;100916.25;5020758;28;45640;-70
2022/09/16 06:01:01;;;;;;;;;11.67;11.33;;;;;16.92;61.24;100912.97;5036818;28;45380;-68
2022/09/16 06:03:27;;;;;;;;;18.33;15.00;;;;;16.89;61.14;100912.50;5021636;28;45539;-67
2022/09/16 06:06:03;;;;;;;;;18.33;14.33;;;;;16.96;61.17;100918.81;5033814;28;45467;-69
2022/09/16 06:08:31;;;;;;;;;15.67;12.67;;;;;16.40;61.32;100833.16;5007026;28;46364;-70
2022/09/16 06:11:00;;;;;;;;;14.00;13.33;;;;;16.83;61.05;100891.75;5017299;28;45274;-71
2022/09/16 06:13:25;;;;;;;;;14.00;13.00;;;;;17.10;60.99;100931.44;5017546;28;45466;-70
2022/09/16 06:15:55;;;;;;;;;12.33;11.33;;;;;17.20;60.39;100934.69;5017627;28;45367;-70
2022/09/16 06:18:25;;;;;;;;;14.67;12.67;;;;;16.99;60.06;100891.59;5032459;28;46034;-69
2022/09/16 06:20:50;;;;;;;;;16.00;16.00;;;;;17.08;60.48;100905.78;5040445;28;45286;-79
2022/09/16 06:23:16;;;;;;;;;14.67;11.00;;;;;17.03;60.50;100909.03;5035562;28;45641;-68
2022/09/16 06:25:42;;;;;;;;;15.67;15.00;;;;;16.41;60.49;100807.16;5015868;28;45362;-71
2022/09/16 06:28:10;;;;;;;;;15.00;13.67;;;;;17.19;60.42;100940.25;5016090;28;45857;-70
2022/09/16 06:30:35;;;;;;;;;20.00;18.67;;;;;17.26;60.30;100935.84;5017343;28;45836;-70
2022/09/16 06:33:01;;;;;;;;;18.67;16.67;;;;;17.24;60.17;100935.19;5017205;28;45324;-68
2022/09/16 06:35:26;;;;;;;;;13.33;13.33;;;;;17.33;60.11;100934.91;5015233;28;62947;-70
2022/09/16 06:37:52;;;;;;;;;14.67;13.67;;;;;17.40;59.93;100936.84;5015718;28;47563;-69
2022/09/16 06:40:18;;;;;;;;;14.00;13.33;;;;;17.32;59.76;100927.03;5016935;28;45447;-69
2022/09/16 06:42:43;;;;;;;;;14.00;11.00;;;;;17.34;59.72;100928.53;5015454;28;45465;-70
2022/09/16 06:45:09;;;;;;;;;19.67;14.33;;;;;17.37;59.57;100929.16;5015682;28;45332;-71
2022/09/16 06:47:35;;;;;;;;;17.33;16.33;;;;;17.28;59.88;100921.22;5015100;28;46293;-70
2022/09/16 06:50:00;;;;;;;;;15.33;14.00;;;;;17.38;59.75;100938.91;5014889;28;45639;-70
2022/09/16 06:52:26;;;;;;;;;16.33;12.33;;;;;16.90;59.52;100857.78;5015425;28;45459;-71
2022/09/16 06:54:53;;;;;;;;;16.33;13.67;;;;;17.31;59.84;100931.59;5016956;28;45371;-70
2022/09/16 06:57:21;;;;;;;;;15.67;13.67;;;;;17.42;59.76;100945.56;5016905;28;46348;-70
2022/09/16 06:59:48;;;;;;;;;17.33;15.67;;;;;17.55;59.40;100945.78;5016856;28;45450;-69
2022/09/16 07:02:13;;;;;;;;;13.33;12.00;;;;;17.84;58.48;100940.44;5017060;28;45534;-70
2022/09/16 07:04:39;;;;;;;;;18.00;16.67;;;;;18.15;57.57;100936.69;5015595;28;45463;-69
2022/09/16 07:07:05;;;;;;;;;13.33;12.67;;;;;18.55;56.23;100952.25;5016319;28;45600;-70
2022/09/16 07:09:31;;;;;;;;;16.33;14.67;;;;;19.09;55.24;100950.94;5016481;28;45356;-69
2022/09/16 07:11:58;;;;;;;;;12.67;12.00;;;;;19.10;53.67;100894.16;5016516;28;45286;-70
2022/09/16 07:14:23;;;;;;;;;18.33;16.67;;;;;19.52;53.09;100962.47;5015658;28;45511;-68
2022/09/16 07:16:49;;;;;;;;;16.00;14.00;;;;;19.45;53.15;100959.72;5016026;28;46140;-70
2022/09/16 07:19:14;;;;;;;;;9.67;9.67;;;;;19.49;52.92;100970.94;5016856;28;45463;-70
2022/09/16 07:21:40;;;;;;;;;13.00;11.00;;;;;19.15;52.89;100939.38;5016002;28;45269;-69
2022/09/16 07:24:06;;;;;;;;;19.33;14.00;;;;;19.09;53.02;100951.78;5014339;28;45277;-70
2022/09/16 07:26:34;;;;;;;;;12.67;12.67;;;;;19.08;54.02;100962.75;5029525;28;48810;-70
2022/09/16 07:29:01;;;;;;;;;15.00;13.33;;;;;18.70;53.90;100905.63;5016117;28;45452;-70
2022/09/16 07:31:30;;;;;;;;;13.33;11.67;;;;;19.06;53.90;100962.94;5016443;28;45400;-68
2022/09/16 07:33:57;;;;;;;;;17.00;12.67;;;;;18.97;53.79;100942.53;5016751;28;45400;-70
2022/09/16 07:36:25;;;;;;;;;15.33;13.00;;;;;19.19;53.44;100969.47;5013239;28;45686;-70
2022/09/16 07:38:51;;;;;;;;;11.67;10.33;;;;;19.23;53.29;100985.06;5015582;28;45440;-69
2022/09/16 07:41:28;;;;;;;;;14.00;13.33;;;;;19.19;53.37;100970.28;5015005;28;45618;-72
2022/09/16 07:43:57;;;;;;;;;12.33;9.67;;;;;19.21;53.51;100978.19;5018802;28;45230;-72
2022/09/16 07:46:24;;;;;;;;;11.67;11.67;;;;;19.26;53.44;100970.38;5019515;28;46453;-71
2022/09/16 07:48:50;;;;;;;;;24.33;21.33;;;;;19.36;52.87;100941.19;5013521;28;45302;-71
2022/09/16 07:51:21;;;;;;;;;27.00;24.33;;;;;20.10;51.83;100981.94;5016095;28;45415;-73
2022/09/16 07:53:51;;;;;;;;;16.67;14.67;;;;;20.87;49.08;100968.06;5015610;28;45294;-72
2022/09/16 07:56:19;;;;;;;;;16.33;13.00;;;;;21.59;46.64;100971.00;5025635;28;45779;-72
2022/09/16 07:58:46;;;;;;;;;13.00;13.00;;;;;21.88;45.28;100992.19;5017819;28;45587;-72
2022/09/16 08:01:13;;;;;;;;;11.33;10.00;;;;;22.14;44.79;101000.25;5015203;28;45476;-71
2022/09/16 08:03:40;;;;;;;;;13.67;11.33;;;;;22.08;44.47;100976.72;5021517;28;45531;-73
2022/09/16 08:06:09;;;;;;;;;8.67;7.33;;;;;22.49;44.21;100989.06;5018666;28;45629;-69
2022/09/16 08:08:34;;;;;;;;;10.33;8.00;;;;;22.54;43.90;100991.94;5017817;28;45634;-69
2022/09/16 08:11:00;;;;;;;;;11.67;11.67;;;;;22.38;43.77;101000.56;5015095;28;50132;-68
2022/09/16 08:13:28;;;;;;;;;12.00;9.00;;;;;22.01;44.70;100965.03;5019271;28;45394;-68
2022/09/16 08:15:54;;;;;;;;;11.00;10.00;;;;;21.78;43.33;100949.28;5018796;28;45675;-69
2022/09/16 08:18:19;;;;;;;;;9.00;7.67;;;;;21.84;44.50;101005.31;5022856;28;45462;-68
2022/09/16 08:20:45;;;;;;;;;10.00;10.00;;;;;21.76;43.60;100991.16;5026819;28;45385;-71
2022/09/16 08:23:11;;;;;;;;;9.00;6.33;;;;;21.72;42.88;100976.38;5019258;28;45475;-68
2022/09/16 08:25:37;;;;;;;;;9.67;7.33;;;;;21.77;42.88;101009.06;5000449;28;45847;-70
2022/09/16 08:28:03;;;;;;;;;8.00;6.00;;;;;21.35;41.79;100983.28;4999398;28;45368;-69
2022/09/16 08:30:29;;;;;;;;;6.33;6.33;;;;;21.11;43.29;101006.34;4999357;28;45529;-69
2022/09/16 08:32:56;;;;;;;;;6.00;5.00;;;;;20.69;43.71;100981.34;4999892;28;45344;-71
2022/09/16 08:35:21;;;;;;;;;5.00;3.67;;;;;20.49;43.19;101012.88;4998976;28;46497;-71
2022/09/16 08:37:47;;;;;;;;;5.00;5.00;;;;;20.18;44.71;101027.63;5017556;28;45212;-69
2022/09/16 08:40:19;;;;;;;;;9.33;7.33;;;;;20.19;45.25;101017.69;5017164;28;45471;-71
2022/09/16 08:43:19;;;;;;;;;12.33;7.00;;;;;19.98;45.82;101015.91;5018842;28;45447;-67
2022/09/16 08:45:54;;;;;;;;;7.67;6.67;;;;;19.71;46.77;101010.34;5016951;28;47328;-69
2022/09/16 08:48:40;;;;;;;;;8.33;7.67;;;;;19.80;46.49;101035.28;5018600;28;45573;-70
2022/09/16 08:51:11;;;;;;;;;4.33;4.33;;;;;19.47;45.27;101002.69;5018429;28;45285;-70
2022/09/16 08:53:41;;;;;;;;;5.33;5.33;;;;;19.58;44.66;101034.53;5018471;28;45566;-69
2022/09/16 08:56:12;;;;;;;;;9.33;7.67;;;;;19.61;44.92;101042.22;5017826;28;45609;-69
2022/09/16 08:58:45;;;;;;;;;5.33;5.33;;;;;19.68;45.32;101042.28;5027981;28;45441;-70
2022/09/16 09:01:35;;;;;;;;;2.67;2.33;;;;;19.78;43.64;101041.94;5009243;28;45324;-71
2022/09/16 09:04:01;;;;;;;;;4.00;3.00;;;;;19.85;43.26;101040.13;5030351;28;45593;-69
2022/09/16 09:07:08;;;;;;;;;7.33;4.00;;;;;19.75;43.97;101037.75;5004097;28;46997;-69
2022/09/16 09:09:49;;;;;;;;;4.33;4.33;;;;;19.65;44.84;101043.53;4959141;28;45414;-69
2022/09/16 09:12:38;;;;;;;;;2.67;2.00;;;;;19.75;44.66;101038.59;5013594;28;45553;-71
2022/09/16 09:15:19;;;;;;;;;5.00;5.00;;;;;19.87;44.17;101038.06;5034387;28;45300;-68
2022/09/16 09:18:20;;;;;;;;;21.00;16.33;;;;;19.51;42.75;100960.81;5020741;28;45643;-69
2022/09/16 09:21:13;;;;;;;;;3.00;3.00;;;;;20.20;42.15;101051.72;5020620;28;45394;-69
2022/09/16 09:24:16;;;;;;;;;3.00;2.00;;;;;20.10;40.63;101057.50;5014853;28;45395;-70
2022/09/16 09:27:03;;;;;;;;;2.33;1.33;;;;;19.86;41.78;101020.22;5018441;28;45413;-68
2022/09/16 09:29:44;;;;;;;;;5.00;3.00;;;;;20.33;40.65;101055.34;4999965;28;45788;-68
2022/09/16 09:32:29;;;;;;;;;3.00;3.00;;;;;20.62;40.17;101061.50;4998326;28;45401;-69
2022/09/16 09:35:18;;;;;;;;;5.67;4.67;;;;;20.23;39.38;100986.56;4997468;28;45471;-70
2022/09/16 09:37:57;;;;;;;;;5.00;5.00;;;;;21.15;39.52;101059.81;4997823;28;45164;-69
2022/09/16 09:40:41;;;;;;;;;4.00;4.00;;;;;21.63;39.03;101069.66;5008978;28;46712;-68
2022/09/16 09:43:36;;;;;;;;;6.33;5.00;;;;;21.96;37.67;101070.44;5021112;28;45524;-69
2022/09/16 09:46:09;;;;;;;;;3.00;3.00;;;;;21.64;37.01;101033.44;5015488;28;45403;-68
2022/09/16 09:48:39;;;;;;;;;3.00;3.00;;;;;21.54;37.45;101050.91;5014600;28;45446;-67
2022/09/16 09:51:51;;;;;;;;;4.67;4.67;;;;;21.79;37.79;101053.81;4997868;28;45619;-69
2022/09/16 09:54:26;;;;;;;;;4.67;3.00;;;;;22.10;35.96;101066.72;4994923;28;45193;-68
2022/09/16 09:57:23;;;;;;;;;2.33;2.33;;;;;21.83;36.22;101059.66;4997848;28;45519;-71
2022/09/16 10:00:03;;;;;;;;;2.00;2.00;;;;;22.19;35.98;101063.75;4995999;28;45385;-74
2022/09/16 10:02:29;;;;;;;;;2.00;2.00;;;;;21.90;35.33;100967.59;5029325;28;46634;-72
2022/09/16 10:04:54;;;;;;;;;3.67;2.00;;;;;22.80;34.49;101066.03;5020144;28;54888;-69
2022/09/16 10:07:23;;;;;;;;;3.67;3.67;;;;;22.97;33.81;101062.63;5016718;28;45599;-70
2022/09/16 10:09:57;;;;;;;;;2.00;1.67;;;;;23.09;32.43;101054.63;5032352;28;45536;-69
2022/09/16 10:12:32;;;;;;;;;2.00;2.00;;;;;23.28;31.58;101053.66;5016939;28;46356;-69
2022/09/16 10:14:58;;;;;;;;;3.00;1.67;;;;;22.94;32.51;101003.41;5017311;28;45421;-70
2022/09/16 10:17:26;;;;;;;;;3.00;2.33;;;;;23.16;31.82;101033.72;5017206;28;45468;-69
2022/09/16 10:19:56;;;;;;;;;2.00;2.00;;;;;23.13;32.25;101061.28;5032754;28;45486;-69
2022/09/16 10:22:29;;;;;;;;;6.00;4.00;;;;;23.15;32.54;101040.19;5016692;28;46284;-70
2022/09/16 10:25:00;;;;;;;;;4.67;3.00;;;;;23.10;33.21;101066.31;5032326;28;45861;-69
2022/09/16 10:27:31;;;;;;;;;4.33;4.33;;;;;23.04;32.46;101062.59;5016438;28;45281;-70
2022/09/16 10:30:20;;;;;;;;;4.00;2.00;;;;;23.15;32.32;101064.59;5016205;28;45257;-70
2022/09/16 10:32:48;;;;;;;;;10.33;8.33;;;;;23.22;30.85;101053.69;5015676;28;47623;-71
2022/09/16 10:35:19;;;;;;;;;7.00;5.67;;;;;23.14;30.74;101056.69;5017034;28;45474;-71
2022/09/16 10:37:50;;;;;;;;;8.00;6.33;;;;;22.93;29.65;101066.00;5017269;28;45481;-70
2022/09/16 10:40:17;;;;;;;;;3.00;3.00;;;;;22.70;29.23;101059.19;5016999;28;45234;-70
2022/09/16 10:42:46;;;;;;;;;6.00;4.67;;;;;22.56;30.46;101065.72;5017359;28;46700;-72
2022/09/16 10:45:25;;;;;;;;;3.00;3.00;;;;;22.73;29.81;101055.22;5017425;28;45425;-69
2022/09/16 10:47:59;;;;;;;;;2.33;2.33;;;;;22.83;30.22;101065.66;5017191;28;45398;-70
2022/09/16 10:50:26;;;;;;;;;4.00;4.00;;;;;22.70;30.10;101063.78;5017464;28;45580;-71
2022/09/16 10:52:52;;;;;;;;;2.00;2.00;;;;;22.48;31.26;101076.81;5017156;28;46391;-69
2022/09/16 10:55:34;;;;;;;;;2.00;2.00;;;;;22.53;31.47;101060.72;5016728;28;45168;-70
2022/09/16 10:58:25;;;;;;;;;8.00;6.67;;;;;22.65;31.71;101069.88;5015844;28;45309;-69
2022/09/16 11:00:57;;;;;;;;;3.67;3.00;;;;;22.65;30.88;101069.88;5014362;28;45312;-70
2022/09/16 11:03:40;;;;;;;;;3.33;3.33;;;;;22.66;31.29;101076.94;5016822;28;48045;-69
2022/09/16 11:06:39;;;;;;;;;8.00;8.00;;;;;22.68;31.74;101063.19;5015974;28;45473;-71
2022/09/16 11:09:17;;;;;;;;;7.00;6.00;;;;;22.89;31.57;101070.19;5013671;28;45570;-71
2022/09/16 11:12:13;;;;;;;;;5.00;5.00;;;;;22.80;31.35;101056.00;5003614;28;45523;-70
2022/09/16 11:14:54;;;;;;;;;3.00;3.00;;;;;22.86;31.74;101032.66;4996919;28;45649;-70
2022/09/16 11:17:25;;;;;;;;;5.33;5.33;;;;;23.13;31.69;101060.44;4996719;28;45425;-70
2022/09/16 11:20:04;;;;;;;;;8.00;6.00;;;;;23.08;31.59;101063.81;4996751;28;45144;-69
2022/09/16 11:22:51;;;;;;;;;4.00;4.00;;;;;23.04;31.41;101078.88;4997562;28;45262;-69
2022/09/16 11:25:32;;;;;;;;;2.00;2.00;;;;;23.01;31.96;101054.88;4996502;28;46024;-69
2022/09/16 11:27:57;;;;;;;;;5.33;4.33;;;;;23.05;31.74;101062.38;5012013;28;45784;-70
2022/09/16 11:30:23;;;;;;;;;6.00;5.00;;;;;22.99;32.07;101048.84;4997217;28;45191;-72
2022/09/16 11:33:00;;;;;;;;;6.00;6.00;;;;;23.25;32.67;101059.53;4997028;28;45447;-69
2022/09/16 11:35:38;;;;;;;;;4.00;4.00;;;;;23.17;31.98;101061.66;4996556;28;46469;-71
2022/09/16 11:38:37;;;;;;;;;6.00;5.00;;;;;22.18;32.73;100987.09;5013569;28;46096;-69
2022/09/16 11:41:03;;;;;;;;;20.67;16.00;;;;;22.54;32.65;101078.66;5015849;28;45584;-71
2022/09/16 11:43:52;;;;;;;;;3.00;2.00;;;;;21.88;32.17;100992.19;5020161;28;45534;-70